Tiempo atmosférico en la estación meteorológica de Bossòst, Lleida (725 m.)



Fecha
DESCASC
Temp. máxima en grados centígrados (hora)
DESCASC
Temp. mínima en grados centígrados (hora)
DESCASC
Temp. media en grados centígrados
DESCASC
Racha de viento máxima en m/sg (hora)
DESCASC
Velocidad máxima media en intervalos de 10 minutos(hora)
DESCASC
Precipitaciones diarias en mm
DESCASC
Precipitaciones de 00:00 a 06:00 en mm
DESCASC
Precipitaciones de 06:00 a 12:00 en mm
DESCASC
Precipitaciones de 12:00 a 18:00 en mm
DESCASC
Precipitaciones de 18:00 a 24:00 en mm
DESCASC
22-11-2020 17.2 (13:40) -1.6 (08:00) 7.8 5.28 (04:40) 3.33 (06:10) 0 0 0 0 0
21-11-2020 12.7 (14:40) -2.6 (05:10) 5 5.28 (18:10) 3.61 (18:10) 0 0 0 0 0
20-11-2020 11.4 (14:10) -1.4 (23:59) 5 6.39 (14:40) 3.33 (14:40) 0.2 0 0 0.2 0
19-11-2020 13.7 (11:50) 3.4 (00:00) 8.5 8.61 (16:40) 4.72 (16:40) 0.2 0 0 0.2 0
18-11-2020 21.4 (14:30) 3.4 (00:00) 12.4 4.72 (21:30) 3.89 (21:30) 0 0 0 0 0
17-11-2020 18.3 (14:30) 1.4 (00:00) 9.8 6.94 (03:10) 4.17 (03:00) 0.2 0.2 0 0 0
16-11-2020 12.7 (13:50) 5.7 (00:00) 9.2 5.83 (15:20) 3.61 (23:59) 2 1.8 0.2 0 0
15-11-2020 19.4 (14:00) 4.3 (00:00) 11.8 6.39 (23:30) 2.78 (23:30) 0.6 0 0 0 0.6
14-11-2020 19.3 (14:00) 2.6 (00:00) 10.9 10 (09:40) 3.89 (09:40) 0 0 0 0 0
13-11-2020 19.6 (14:10) 3.6 (00:00) 11.6 4.17 (01:20) 3.61 (08:40) 0 0 0 0 0
12-11-2020 18 (14:50) 3.3 (00:00) 10.6 5.83 (19:20) 3.89 (19:10) 0.8 0 0 0.6 0.2
11-11-2020 17.2 (14:50) 2 (00:00) 9.6 5 (04:10) 3.61 (03:10) 0 0 0 0 0
10-11-2020 13.1 (14:30) 5.1 (00:00) 9.1 4.17 (23:00) 2.78 (22:00) 3.2 0 1.4 1.2 0.6
09-11-2020 18.5 (14:00) 3.1 (00:00) 10.8 5 (15:00) 3.33 (03:40) 0.2 0 0 0 0.2
08-11-2020 16.2 (13:30) 4.8 (00:00) 10.5 7.22 (00:10) 4.44 (00:20) 0 0 0 0 0
07-11-2020 19.7 (02:30) 10.4 (00:00) 15.1 15 (07:10) 6.39 (07:10) 5.6 0 0.6 4.8 0.2
06-11-2020 21.9 (14:10) 7.4 (00:00) 14.6 17.78 (20:40) 9.72 (20:50) 0 0 0 0 0
05-11-2020 15.6 (15:10) 1.6 (00:00) 8.6 4.17 (04:30) 2.5 (04:30) 0.2 0 0 0.2 0
04-11-2020 8.2 (13:10) 4.2 (00:00) 6.2 3.61 (01:40) 1.67 (15:20) 5.4 3 2.4 0 0
03-11-2020 13.5 (01:00) 6.9 (00:00) 10.2 4.44 (04:00) 2.22 (04:00) 3.4 0 0 2.4 1
02-11-2020 22.1 (14:00) 5.2 (00:00) 13.7 5 (14:20) 3.61 (06:50) 0 0 0 0 0
01-11-2020 24 (14:20) 4.4 (00:00) 14.2 6.11 (04:40) 3.89 (20:50) 0 0 0 0 0
31-10-2020 23.5 (14:40) 3.5 (00:00) 13.5 5 (22:40) 3.89 (23:10) 0 0 0 0 0
30-10-2020 22.2 (14:40) 4.3 (00:00) 13.3 4.72 (01:40) 3.06 (00:20) 0.2 0 0 0.2 0
29-10-2020 17.5 (14:00) 6.7 (00:00) 12.1 6.39 (08:00) 4.17 (08:00) 0.2 0 0.2 0 0
28-10-2020 15.4 (13:40) 6.3 (00:00) 10.8 6.39 (14:00) 3.61 (14:00) 0 0 0 0 0

Gráficas

Temp. máximas Temp. mínimas Temp. medias Precipitaciones Rachas de viento máximas Velocidades máximas media en intervalos de 10 minutos

Datos horarios

Fecha y hora oficial Temperatura (ºC) Velocidad del viento (km/h) Dirección del viento Racha (km/h) Dirección de racha Precipitación (mm) Presión (hPa) Tendencia (hPa) Humedad (%)
2020-11-26 23:00:00 12.2 14 Sudoeste 24 Sudoeste 0 -- -- 60
2020-11-26 22:00:00 12.7 11 Sur 27 Sudoeste 0 -- -- 58
2020-11-26 21:00:00 12.2 8 Sur 20 Sur 0 -- -- 59
2020-11-26 20:00:00 12.6 12 Sudoeste 25 Sudoeste 0 -- -- 59
2020-11-26 19:00:00 13 12 Sudoeste 27 Sudoeste 0 -- -- 56
2020-11-26 18:00:00 13.7 8 Sudoeste 36 Oeste 0 -- -- 52
2020-11-26 17:00:00 14.8 13 Sudoeste 32 Sudoeste 0 -- -- 49
2020-11-26 16:00:00 15.3 18 Sudoeste 39 Sudoeste 0 -- -- 47
2020-11-26 15:00:00 15.4 19 Sudoeste 40 Sudoeste 0 -- -- 46
2020-11-26 14:00:00 15.8 21 Sudoeste 44 Sudoeste 0 -- -- 43
2020-11-26 13:00:00 16 24 Sudoeste 48 Sudoeste 0 -- -- 42
2020-11-26 12:00:00 17.3 22 Sudoeste 43 Sudoeste 0 -- -- 40
2020-11-26 11:00:00 10.8 6 Noroeste 19 Sur 0 -- -- 58
2020-11-26 10:00:00 8.2 2 Nordeste 15 Sudeste 0 -- -- 66
2020-11-26 09:00:00 8.5 8 Sudoeste 22 Sudoeste 0 -- -- 63
2020-11-26 08:00:00 9.8 13 Sudoeste 24 Sudoeste 0 -- -- 54
2020-11-26 07:00:00 10.2 13 Sudoeste 29 Sudoeste 0 -- -- 52
2020-11-26 06:00:00 10.2 12 Sur 23 Sudoeste 0 -- -- 52
2020-11-26 05:00:00 9.5 10 Sudoeste 21 Sur 0 -- -- 55
2020-11-26 04:00:00 10.5 10 Sur 30 Sudoeste 0 -- -- 52
2020-11-26 03:00:00 10.7 6 Oeste 28 Sudoeste 0 -- -- 53
2020-11-26 02:00:00 10.2 11 Sudoeste 25 Oeste 0 -- -- 54
2020-11-26 01:00:00 7 5 Sur 12 Sudoeste 0 -- -- 65
2020-11-26 00:00:00 6.7 3 Sur 13 Sur 0 -- -- 66
2020-11-25 23:00:00 5.9 0 Calma 8 Sur 0 -- -- 69
2020-11-25 22:00:00 8.6 4 Sudoeste 16 Sudoeste 0 -- -- 58
2020-11-25 21:00:00 10 8 Sudoeste 25 Oeste 0 -- -- 54
2020-11-25 20:00:00 11.6 8 Oeste 35 Oeste 0 -- -- 48
2020-11-25 19:00:00 12.2 15 Oeste 29 Sudoeste 0 -- -- 47
2020-11-25 18:00:00 7.7 6 Sur 21 Sudoeste 0 -- -- 62
2020-11-25 17:00:00 6.9 3 Sur 11 Noroeste 0 -- -- 66
2020-11-25 16:00:00 9.1 3 Oeste 14 Sur 0 -- -- 57
2020-11-25 15:00:00 14.6 8 Sur 21 Sudoeste 0 -- -- 35
2020-11-25 14:00:00 18.6 9 Oeste 29 Sudoeste 0 -- -- 28
2020-11-25 13:00:00 17.5 20 Sudoeste 45 Sudoeste 0 -- -- 29
2020-11-25 12:00:00 16.2 27 Sudoeste 49 Sudoeste 0 -- -- 30
2020-11-25 11:00:00 7 12 Oeste 37 Sudoeste 0 -- -- 52
2020-11-25 10:00:00 1.1 3 Nordeste 9 Oeste 0 -- -- 76
2020-11-25 09:00:00 0.3 2 Sudoeste 8 Noroeste 0 -- -- 79
2020-11-25 08:00:00 -0.2 2 Noroeste 8 Sur 0 -- -- 81
2020-11-25 07:00:00 -0.3 3 Nordeste 8 Sudeste 0 -- -- 84
2020-11-25 06:00:00 -1.4 3 Sur 9 Sudoeste 0 -- -- 89
2020-11-25 05:00:00 -1.6 3 Sur 8 Noroeste 0 -- -- 87
2020-11-25 04:00:00 -1.3 3 Sur 9 Oeste 0 -- -- 89
2020-11-25 03:00:00 -1 2 Sur 9 Oeste 0 -- -- 88
2020-11-25 02:00:00 -0.5 3 Sur 10 Sudoeste 0 -- -- 86
2020-11-25 01:00:00 0.3 3 Sur 8 Sur 0 -- -- 85
2020-11-25 00:00:00 0.7 4 Sur 9 Sudoeste 0 -- -- 84
2020-11-24 23:00:00 1 4 Sudoeste 8 Sudoeste 0 -- -- 83
2020-11-24 22:00:00 1.8 0 Calma 8 Sudoeste 0 -- -- 79
2020-11-24 21:00:00 2.5 3 Sudoeste 9 Sudoeste 0 -- -- 79
2020-11-24 20:00:00 4.6 3 Sudoeste 7 Sur 0 -- -- 69
2020-11-24 19:00:00 4.6 0 Calma 6 Sudoeste 0 -- -- 71
2020-11-24 18:00:00 6.7 0 Calma 5 Sur 0 -- -- 65
2020-11-24 17:00:00 9.9 0 Calma 6 Sur 0 -- -- 56
2020-11-24 16:00:00 12.7 3 Sur 12 Norte 0 -- -- 49
2020-11-24 15:00:00 15.4 2 Sudoeste 8 Norte 0 -- -- 46
2020-11-24 14:00:00 18.2 2 Norte 6 Nordeste 0 -- -- 33
2020-11-24 13:00:00 16.5 3 Nordeste 6 Sur 0 -- -- 35
2020-11-24 12:00:00 11.5 3 Este 7 Sur 0 -- -- 54
2020-11-24 11:00:00 2 0 Calma 6 Oeste 0 -- -- 86
2020-11-24 10:00:00 0.2 2 Oeste 6 Sur 0 -- -- 89
2020-11-24 09:00:00 -0.5 2 Sudoeste 7 Sur 0 -- -- 90
2020-11-24 08:00:00 -0.7 3 Sur 6 Sudoeste 0 -- -- 87
2020-11-24 07:00:00 0 3 Sur 11 Sur 0 -- -- 82
2020-11-24 06:00:00 -0.5 3 Sudeste 10 Sur 0 -- -- 82
2020-11-24 05:00:00 0.1 0 Calma 12 Sudoeste 0 -- -- 79
2020-11-24 04:00:00 -0.1 0 Calma 6 Sur 0 -- -- 81
2020-11-24 03:00:00 -0.1 3 Sur 5 Sudoeste 0 -- -- 79
2020-11-24 02:00:00 0.7 2 Nordeste 11 Sudoeste 0 -- -- 77
2020-11-24 01:00:00 0 3 Sur 10 Sudoeste 0 -- -- 80
2020-11-24 00:00:00 -0.1 2 Oeste 6 Sudoeste 0 -- -- 82
2020-11-23 23:00:00 0.7 0 Calma 7 Sudoeste 0 -- -- 77
2020-11-23 22:00:00 2.4 0 Calma 15 Sudoeste 0 -- -- 71
2020-11-23 21:00:00 2.9 10 Sudoeste 17 Sudoeste 0 -- -- 68
2020-11-23 20:00:00 3.9 6 Sur 15 Sur 0 -- -- 65
2020-11-23 19:00:00 3.8 8 Sur 17 Sudoeste 0 -- -- 68
2020-11-23 18:00:00 4.2 5 Sudoeste 11 Sudoeste 0 -- -- 69
2020-11-23 17:00:00 5.1 4 Sudoeste 9 Sudoeste 0 -- -- 68
2020-11-23 16:00:00 6.9 0 Calma 6 Sur 0 -- -- 65
2020-11-23 15:00:00 12.2 2 Sur 9 Nordeste 0 -- -- 44
2020-11-23 14:00:00 13.8 3 Nordeste 10 Norte 0 -- -- 34
2020-11-23 13:00:00 12.2 3 Nordeste 6 Nordeste 0 -- -- 40
2020-11-23 12:00:00 7.9 0 Calma 3 Nordeste 0 -- -- 52
2020-11-23 11:00:00 -0.8 0 Calma 3 Sudoeste 0 -- -- 90
2020-11-23 10:00:00 -1 0 Calma 9 Sudoeste 0 -- -- 87
2020-11-23 09:00:00 -1.3 8 Sudoeste 12 Sudoeste 0 -- -- 86
2020-11-23 08:00:00 -2 3 Sur 5 Sur 0 -- -- 88
2020-11-23 07:00:00 -1.2 2 Sudoeste 7 Este 0 -- -- 82
2020-11-23 06:00:00 -0.3 3 Sudeste 14 Sur 0 -- -- 80
2020-11-23 05:00:00 -0.5 6 Sur 13 Sudoeste 0 -- -- 79
2020-11-23 04:00:00 -0.7 4 Sur 7 Sudoeste 0 -- -- 82
2020-11-23 03:00:00 0.5 5 Sudoeste 10 Sudoeste 0 -- -- 75
2020-11-23 02:00:00 0.4 3 Sur 14 Sudoeste 0 -- -- 76
2020-11-23 01:00:00 0.4 6 Sudoeste 11 Sudoeste 0 -- -- 76
2020-11-23 00:00:00 1.4 9 Sudoeste 15 Sur 0 -- -- 71
2020-11-22 23:00:00 0.4 5 Sudoeste 8 Sudoeste 0 -- -- 80
2020-11-22 22:00:00 3.5 2 Norte 16 Sudoeste 0 -- -- 65
2020-11-22 21:00:00 3.2 10 Sur 17 Sudoeste 0 -- -- 65
2020-11-22 20:00:00 3.4 6 Sur 12 Sudoeste 0 -- -- 67
2020-11-22 19:00:00 3.7 8 Sudoeste 13 Sudoeste 0 -- -- 67
2020-11-22 18:00:00 4.1 6 Sudoeste 12 Sudoeste 0 -- -- 68
2020-11-22 17:00:00 5 5 Sudoeste 12 Sudoeste 0 -- -- 66
2020-11-22 16:00:00 7 4 Sudoeste 9 Sudoeste 0 -- -- 58
2020-11-22 15:00:00 12.1 2 Sudoeste 8 Sudoeste 0 -- -- 45
2020-11-22 14:00:00 16.8 4 Nordeste 7 Nordeste 0 -- -- 26
2020-11-22 13:00:00 14.9 0 Calma 4 Nordeste 0 -- -- 30
2020-11-22 12:00:00 9.3 0 Calma 3 Norte 0 -- -- 44
2020-11-22 11:00:00 -0.4 0 Calma 3 Nordeste 0 -- -- 82
2020-11-22 10:00:00 -0.9 0 Calma 7 Sudoeste 0 -- -- 79
2020-11-22 09:00:00 -1 0 Calma 11 Sudoeste 0 -- -- 76
2020-11-22 08:00:00 -1.6 5 Sudoeste 11 Sudoeste 0 -- -- 78
2020-11-22 07:00:00 0.7 2 Sur 18 Sudoeste 0 -- -- 66
2020-11-22 06:00:00 1.6 10 Sur 17 Sudoeste 0 -- -- 57
2020-11-22 05:00:00 1.6 9 Sur 19 Sudoeste 0 -- -- 59
2020-11-22 04:00:00 0.9 7 Sur 14 Sudoeste 0 -- -- 63
2020-11-22 03:00:00 0.3 5 Sur 16 Sudoeste 0 -- -- 69
2020-11-22 02:00:00 -0.8 0 Calma 9 Sur 0 -- -- 78
2020-11-22 01:00:00 -1.3 0 Calma 8 Sur 0 -- -- 82
2020-11-22 00:00:00 -1 2 Nordeste 7 Sudoeste 0 -- -- 82
2020-11-21 23:00:00 0.1 3 Sur 8 Sur 0 -- -- 74
2020-11-21 22:00:00 1 0 Calma 17 Sudoeste 0 -- -- 74
2020-11-21 21:00:00 2 10 Sudoeste 18 Sudoeste 0 -- -- 67
2020-11-21 20:00:00 1.8 10 Sudoeste 17 Sudoeste 0 -- -- 71
2020-11-21 19:00:00 2.3 3 Sur 19 Sudoeste 0 -- -- 70
2020-11-21 18:00:00 3.3 10 Sur 17 Sur 0 -- -- 65
2020-11-21 17:00:00 3.9 5 Sur 15 Sur 0 -- -- 63
2020-11-21 16:00:00 4.2 3 Sudoeste 12 Sudoeste 0 -- -- 67
2020-11-21 15:00:00 9.4 4 Sur 9 Norte 0 -- -- 52
2020-11-21 14:00:00 12.4 3 Nordeste 7 Nordeste 0 -- -- 30
2020-11-21 13:00:00 11 0 Calma 4 Sur 0 -- -- 32
2020-11-21 12:00:00 5.8 0 Calma 3 Sur 0 -- -- 50
2020-11-21 11:00:00 -2.3 0 Calma 4 Oeste 0 -- -- 80
2020-11-21 10:00:00 -2 3 Nordeste 12 Sur 0 -- -- 76
2020-11-21 09:00:00 -1.5 7 Sur 14 Sudoeste 0 -- -- 66
2020-11-21 08:00:00 -1.6 5 Sur 15 Sudoeste 0 -- -- 64
2020-11-21 07:00:00 -1.9 6 Sur 15 Sudoeste 0 -- -- 71
2020-11-21 06:00:00 -2.3 7 Sur 13 Sur 0 -- -- 80
2020-11-21 05:00:00 -2.4 3 Este 10 Sudoeste 0 -- -- 89
2020-11-21 04:00:00 -1.6 3 Sudeste 10 Sudoeste 0 -- -- 88
2020-11-21 03:00:00 -1.5 6 Sur 12 Sudoeste 0 -- -- 92
2020-11-21 02:00:00 -1.4 4 Sudoeste 11 Sudoeste 0 -- -- 94
2020-11-21 01:00:00 -1.3 3 Sur 9 Sur 0 -- -- 96
2020-11-21 00:00:00 -1.4 7 Sudoeste 9 Sudoeste 0 -- -- 94
2020-11-20 23:00:00 0 3 Norte 12 Sudoeste 0 -- -- 93
2020-11-20 22:00:00 0.2 6 Sur 9 Sur 0 -- -- 94
2020-11-20 21:00:00 0.4 0 Calma 4 Sudeste 0 -- -- 96
2020-11-20 20:00:00 0.6 0 Calma 3 Oeste 0 -- -- 93
2020-11-20 19:00:00 1.4 0 Calma 2 Noroeste 0 -- -- 93
2020-11-20 18:00:00 2.5 0 Calma 4 Sur 0 -- -- 87
2020-11-20 17:00:00 4.6 0 Calma 11 Sudoeste 0 -- -- 77
2020-11-20 16:00:00 8.2 5 Este 22 Norte 0 -- -- 59
2020-11-20 15:00:00 9.7 9 Norte 23 Norte 0 -- -- 41
2020-11-20 14:00:00 11.2 4 Nordeste 9 Nordeste 0.2 -- -- 37
2020-11-20 13:00:00 9.9 3 Nordeste 8 Nordeste 0 -- -- 53
2020-11-20 12:00:00 7.3 0 Calma 3 Sur 0 -- -- 79
2020-11-20 11:00:00 1.8 0 Calma 3 Nordeste 0 -- -- 99
2020-11-20 10:00:00 2.1 0 Calma 3 Norte 0 -- -- 99
2020-11-20 09:00:00 2.6 0 Calma 3 Norte 0 -- -- 99
2020-11-20 08:00:00 2.5 0 Calma 3 Nordeste 0 -- -- 99
2020-11-20 07:00:00 1.3 0 Calma 4 Sudoeste 0 -- -- 97
2020-11-20 06:00:00 2.7 0 Calma 3 Norte 0 -- -- 97
2020-11-20 05:00:00 4.1 0 Calma 4 Nordeste 0 -- -- 96
2020-11-20 04:00:00 4 0 Calma 4 Nordeste 0 -- -- 97
2020-11-20 03:00:00 4.9 0 Calma 3 Este 0 -- -- 94
2020-11-20 02:00:00 5.6 0 Calma 8 Nordeste 0 -- -- 92
2020-11-20 01:00:00 5.9 5 Nordeste 10 Nordeste 0 -- -- 92
2020-11-20 00:00:00 6.5 2 Norte 13 Este 0 -- -- 88
2020-11-19 23:00:00 7.2 6 Nordeste 22 Norte 0 -- -- 87
2020-11-19 22:00:00 7.5 9 Norte 22 Norte 0 -- -- 86
2020-11-19 21:00:00 6.4 0 Calma 8 Nordeste 0 -- -- 97
2020-11-19 20:00:00 5.6 0 Calma 9 Sudoeste 0 -- -- 92
2020-11-19 19:00:00 7.7 3 Sur 9 Nordeste 0 -- -- 88
2020-11-19 18:00:00 8.4 4 Nordeste 26 Norte 0 -- -- 84
2020-11-19 17:00:00 8.8 12 Norte 31 Norte 0 -- -- 83
2020-11-19 16:00:00 9.2 6 Nordeste 17 Norte 0 -- -- 88
2020-11-19 15:00:00 9.7 6 Nordeste 22 Norte 0.2 -- -- 88
2020-11-19 14:00:00 11.4 3 Nordeste 6 Norte 0 -- -- 92
2020-11-19 13:00:00 12.5 5 Nordeste 21 Norte 0 -- -- 82
2020-11-19 12:00:00 13.4 9 Nordeste 15 Norte 0 -- -- 67
2020-11-19 11:00:00 10.9 2 Noroeste 7 Sudeste 0 -- -- 76
2020-11-19 10:00:00 9.7 0 Calma 13 Oeste 0 -- -- 76
2020-11-19 09:00:00 7.5 3 Norte 12 Sudoeste 0 -- -- 83
2020-11-19 08:00:00 5.3 2 Este 14 Sudoeste 0 -- -- 93
2020-11-19 07:00:00 3.5 3 Sur 8 Sudoeste 0 -- -- 94
2020-11-19 06:00:00 4.8 0 Calma 13 Sudoeste 0 -- -- 88
2020-11-19 05:00:00 5.5 7 Sudoeste 14 Sudoeste 0 -- -- 86
2020-11-19 04:00:00 5 4 Sur 11 Sudoeste 0 -- -- 89
2020-11-19 03:00:00 4.6 4 Sur 9 Sudoeste 0 -- -- 91
2020-11-19 02:00:00 4.6 2 Sur 10 Sudoeste 0 -- -- 93
2020-11-19 01:00:00 4.8 5 Sur 9 Sudoeste 0 -- -- 94
2020-11-19 00:00:00 5.3 2 Sudoeste 9 Sudoeste 0 -- -- 88
2020-11-18 23:00:00 7.2 8 Sur 17 Sudoeste 0 -- -- 83
2020-11-18 22:00:00 7 12 Sudoeste 17 Sudoeste 0 -- -- 86
2020-11-18 21:00:00 7.5 12 Sudoeste 17 Sudoeste 0 -- -- 84
2020-11-18 20:00:00 8.7 10 Sudoeste 16 Sudoeste 0 -- -- 81
2020-11-18 19:00:00 6.9 3 Sur 6 Sudoeste 0 -- -- 90
2020-11-18 18:00:00 8.5 0 Calma 5 Sudoeste 0 -- -- 83
2020-11-18 17:00:00 10.9 0 Calma 6 Oeste 0 -- -- 76
2020-11-18 16:00:00 12.7 2 Sudoeste 8 Sudoeste 0 -- -- 72
2020-11-18 15:00:00 17.1 5 Sudoeste 9 Sudoeste 0 -- -- 58
2020-11-18 14:00:00 20.5 2 Nordeste 7 Nordeste 0 -- -- 40
2020-11-18 13:00:00 18.5 3 Nordeste 6 Nordeste 0 -- -- 50
2020-11-18 12:00:00 14.2 0 Calma 3 Sur 0 -- -- 66
2020-11-18 11:00:00 5.4 0 Calma 4 Sur 0 -- -- 98
2020-11-18 10:00:00 4.4 0 Calma 5 Sur 0 -- -- 95
2020-11-18 09:00:00 5.1 0 Calma 14 Sudoeste 0 -- -- 89
2020-11-18 08:00:00 6.3 9 Sur 16 Sur 0 -- -- 86
2020-11-18 07:00:00 4.2 3 Sur 10 Sudoeste 0 -- -- 96
2020-11-18 06:00:00 3.5 0 Calma 6 Sur 0 -- -- 97
2020-11-18 05:00:00 3.7 2 Oeste 6 Sudoeste 0 -- -- 97
2020-11-18 04:00:00 4.3 3 Sur 6 Sur 0 -- -- 99
2020-11-18 03:00:00 4 3 Sudoeste 8 Sudoeste 0 -- -- 98
2020-11-18 02:00:00 4.1 3 Sudoeste 5 Sudoeste 0 -- -- 97
2020-11-18 01:00:00 4.5 0 Calma 5 Sur 0 -- -- 96
2020-11-18 00:00:00 5.3 2 Sur 10 Sudoeste 0 -- -- 93
2020-11-17 23:00:00 6.4 3 Sudeste 10 Sudoeste 0 -- -- 90
2020-11-17 22:00:00 7.6 3 Sur 15 Sudoeste 0 -- -- 86
2020-11-17 21:00:00 7.6 7 Sur 13 Sudoeste 0 -- -- 88
2020-11-17 20:00:00 6.6 0 Calma 5 Sudoeste 0 -- -- 93
2020-11-17 19:00:00 7.1 0 Calma 8 Sudoeste 0 -- -- 91
2020-11-17 18:00:00 8.2 0 Calma 8 Sudoeste 0 -- -- 88
2020-11-17 17:00:00 9.6 4 Sur 10 Sudoeste 0 -- -- 84
2020-11-17 16:00:00 11.5 5 Sudoeste 7 Sudoeste 0 -- -- 78
2020-11-17 15:00:00 17.2 3 Norte 11 Norte 0 -- -- 55
2020-11-17 14:00:00 18 2 Norte 6 Norte 0 -- -- 50
2020-11-17 13:00:00 16.7 2 Nordeste 6 Nordeste 0 -- -- 53
2020-11-17 12:00:00 13 0 Calma 2 Nordeste 0 -- -- 73
2020-11-17 11:00:00 3.8 0 Calma 3 Nordeste 0 -- -- 95
2020-11-17 10:00:00 2.1 0 Calma 3 Nordeste 0 -- -- 92
2020-11-17 09:00:00 1.9 0 Calma 10 Sur 0 -- -- 90
2020-11-17 08:00:00 2.8 6 Sur 15 Sudoeste 0 -- -- 82
2020-11-17 07:00:00 1.6 0 Calma 5 Este 0 -- -- 91
2020-11-17 06:00:00 1.5 2 Sur 7 Sudoeste 0 -- -- 92
2020-11-17 05:00:00 2.1 0 Calma 5 Sudoeste 0 -- -- 90
2020-11-17 04:00:00 3.4 0 Calma 25 Sudoeste 0 -- -- 84
2020-11-17 03:00:00 3.7 15 Sudoeste 22 Sudoeste 0 -- -- 86
2020-11-17 02:00:00 4 9 Sudoeste 21 Sudoeste 0 -- -- 88
2020-11-17 01:00:00 4.8 13 Sudoeste 18 Sudoeste 0.2 -- -- 88
2020-11-17 00:00:00 5.7 13 Sudoeste 17 Sur 0 -- -- 87
2020-11-16 23:00:00 7 10 Sudoeste 13 Sudoeste 0 -- -- 87
2020-11-16 22:00:00 8.3 3 Sudoeste 14 Oeste 0 -- -- 86
2020-11-16 21:00:00 8.2 8 Sudoeste 14 Sudoeste 0 -- -- 88
2020-11-16 20:00:00 7.7 6 Sudoeste 8 Sudoeste 0 -- -- 92
2020-11-16 19:00:00 7.3 0 Calma 4 Sudoeste 0 -- -- 93
2020-11-16 18:00:00 7.6 0 Calma 3 Sur 0 -- -- 89
2020-11-16 17:00:00 10.4 0 Calma 9 Nordeste 0 -- -- 77
2020-11-16 16:00:00 11 4 Norte 21 Norte 0 -- -- 71
2020-11-16 15:00:00 11.4 10 Norte 18 Norte 0 -- -- 72
2020-11-16 14:00:00 12.3 8 Norte 17 Norte 0 -- -- 66
2020-11-16 13:00:00 12.2 10 Norte 17 Norte 0 -- -- 66
2020-11-16 12:00:00 11.7 5 Norte 16 Norte 0 -- -- 72
2020-11-16 11:00:00 9.6 9 Nordeste 17 Nordeste 0 -- -- 83
2020-11-16 10:00:00 9.3 8 Norte 18 Norte 0 -- -- 90
2020-11-16 09:00:00 8.9 5 Este 12 Nordeste 0 -- -- 91
2020-11-16 08:00:00 8.7 3 Norte 8 Nordeste 0 -- -- 98
2020-11-16 07:00:00 8.8 0 Calma 8 Nordeste 0.2 -- -- 97
2020-11-16 06:00:00 9 4 Nordeste 14 Nordeste 0 -- -- 95
2020-11-16 05:00:00 9.3 0 Calma 9 Este 0.4 -- -- 95
2020-11-16 04:00:00 9.8 4 Nordeste 14 Nordeste 0 -- -- 94
2020-11-16 03:00:00 10.4 2 Nordeste 6 Nordeste 0 -- -- 95
2020-11-16 02:00:00 10.8 0 Calma 7 Nordeste 0.6 -- -- 94
2020-11-16 01:00:00 11.2 0 Calma 8 Este 0.8 -- -- 95
2020-11-16 00:00:00 11.6 5 Nordeste 23 Norte 0.6 -- -- 93
2020-11-15 23:00:00 10.7 0 Calma 5 Sur 0 -- -- 94
2020-11-15 22:00:00 10.3 0 Calma 5 Sur 0 -- -- 85
2020-11-15 21:00:00 11.6 6 Sur 8 Sur 0 -- -- 78
2020-11-15 20:00:00 12.6 0 Calma 9 Sudoeste 0 -- -- 74
2020-11-15 19:00:00 12 0 Calma 6 Sudoeste 0 -- -- 77
2020-11-15 18:00:00 12.8 0 Calma 4 Sudoeste 0 -- -- 76
2020-11-15 17:00:00 15.4 0 Calma 4 Sur 0 -- -- 71
2020-11-15 16:00:00 17.3 0 Calma 7 Nordeste 0 -- -- 66
2020-11-15 15:00:00 18.5 0 Calma 5 Oeste 0 -- -- 53
2020-11-15 14:00:00 19.4 0 Calma 8 Norte 0 -- -- 45
2020-11-15 13:00:00 18.6 3 Nordeste 4 Nordeste 0 -- -- 53
2020-11-15 12:00:00 15.4 0 Calma 9 Sudeste 0 -- -- 60
2020-11-15 11:00:00 8 2 Este 5 Sudoeste 0 -- -- 84
2020-11-15 10:00:00 7.7 4 Nordeste 18 Sur 0 -- -- 82
2020-11-15 09:00:00 6.3 3 Nordeste 6 Norte 0 -- -- 87
2020-11-15 08:00:00 5.7 0 Calma 5 Oeste 0 -- -- 88
2020-11-15 07:00:00 7.3 3 Norte 13 Sudeste 0 -- -- 80
2020-11-15 06:00:00 5.4 3 Norte 8 Oeste 0 -- -- 89
2020-11-15 05:00:00 4.3 2 Sudoeste 5 Sudoeste 0 -- -- 90
2020-11-15 04:00:00 5.2 2 Nordeste 7 Oeste 0 -- -- 87
2020-11-15 03:00:00 6.9 0 Calma 13 Sur 0 -- -- 80
2020-11-15 02:00:00 6.8 6 Sur 12 Sur 0 -- -- 80
2020-11-15 01:00:00 7.4 2 Sudoeste 9 Sur 0 -- -- 78
2020-11-15 00:00:00 10.8 3 Oeste 15 Oeste 0 -- -- 64
2020-11-14 23:00:00 13.8 4 Oeste 22 Sur 0 -- -- 47
2020-11-14 22:00:00 13.4 6 Sur 18 Sudoeste 0 -- -- 50
2020-11-14 21:00:00 9.2 2 Sudoeste 7 Sudoeste 0 -- -- 77
2020-11-14 20:00:00 8.9 2 Sudoeste 6 Sur 0 -- -- 79
2020-11-14 19:00:00 8.8 2 Norte 8 Oeste 0 -- -- 78
2020-11-14 18:00:00 10 0 Calma 5 Sudoeste 0 -- -- 73
2020-11-14 17:00:00 12.1 0 Calma 12 Sudoeste 0 -- -- 65
2020-11-14 16:00:00 12.4 4 Sur 13 Sudoeste 0 -- -- 64
2020-11-14 15:00:00 17.2 5 Sudoeste 8 Sudoeste 0 -- -- 49
2020-11-14 14:00:00 19.3 2 Norte 8 Nordeste 0 -- -- 35
2020-11-14 13:00:00 17.7 2 Nordeste 11 Nordeste 0 -- -- 40
2020-11-14 12:00:00 16.2 4 Nordeste 13 Norte 0 -- -- 48
2020-11-14 11:00:00 13 9 Norte 34 Oeste 0 -- -- 46
2020-11-14 10:00:00 13.8 9 Sur 36 Sudoeste 0 -- -- 42
2020-11-14 09:00:00 13 11 Sur 29 Sudeste 0 -- -- 41
2020-11-14 08:00:00 12.6 10 Sur 27 Sudeste 0 -- -- 42
2020-11-14 07:00:00 12 13 Sur 32 Sur 0 -- -- 45
2020-11-14 06:00:00 12 12 Sur 28 Sudoeste 0 -- -- 48
2020-11-14 05:00:00 9.9 8 Sur 23 Sur 0 -- -- 62
2020-11-14 04:00:00 3 2 Sur 7 Sur 0 -- -- 94
2020-11-14 03:00:00 3.1 3 Sur 6 Noroeste 0 -- -- 96
2020-11-14 02:00:00 2.7 0 Calma 6 Sur 0 -- -- 95
2020-11-14 01:00:00 3.1 0 Calma 6 Sudoeste 0 -- -- 96
2020-11-14 00:00:00 3.6 3 Sur 5 Sur 0 -- -- 95
2020-11-13 23:00:00 4 2 Sudoeste 6 Sudoeste 0 -- -- 93
2020-11-13 22:00:00 4.5 0 Calma 6 Sur 0 -- -- 92
2020-11-13 21:00:00 5.8 0 Calma 9 Sudoeste 0 -- -- 87
2020-11-13 20:00:00 7.7 6 Sur 15 Sudoeste 0 -- -- 81
2020-11-13 19:00:00 8.1 8 Sudoeste 13 Sudoeste 0 -- -- 81
2020-11-13 18:00:00 8.9 0 Calma 5 Sudoeste 0 -- -- 80
2020-11-13 17:00:00 11 0 Calma 7 Sur 0 -- -- 73
2020-11-13 16:00:00 12.7 4 Sudoeste 9 Sudoeste 0 -- -- 65
2020-11-13 15:00:00 18.4 5 Sudoeste 9 Sudoeste 0 -- -- 51
2020-11-13 14:00:00 19.5 2 Nordeste 6 Norte 0 -- -- 38
2020-11-13 13:00:00 18.1 2 Norte 5 Este 0 -- -- 42
2020-11-13 12:00:00 15.9 3 Nordeste 5 Nordeste 0 -- -- 50
2020-11-13 11:00:00 11.9 0 Calma 5 Nordeste 0 -- -- 78
2020-11-13 10:00:00 10.1 0 Calma 6 Oeste 0 -- -- 80
2020-11-13 09:00:00 9.8 4 Nordeste 15 Sudoeste 0 -- -- 74
2020-11-13 08:00:00 8.2 10 Sur 14 Sudoeste 0 -- -- 81
2020-11-13 07:00:00 6.6 3 Sur 5 Sur 0 -- -- 88
2020-11-13 06:00:00 6.6 0 Calma 5 Nordeste 0 -- -- 86
2020-11-13 05:00:00 7.3 0 Calma 6 Sudoeste 0 -- -- 83
2020-11-13 04:00:00 7.5 3 Sur 13 Sudoeste 0 -- -- 80
2020-11-13 03:00:00 5.6 2 Sudoeste 7 Sudoeste 0 -- -- 85
2020-11-13 02:00:00 5.8 0 Calma 15 Sudoeste 0 -- -- 82
2020-11-13 01:00:00 4.3 3 Sudoeste 8 Oeste 0 -- -- 90
2020-11-13 00:00:00 4.7 4 Sudoeste 11 Noroeste 0 -- -- 89
2020-11-12 23:00:00 3.4 0 Calma 6 Sudoeste 0 -- -- 94
2020-11-12 22:00:00 4 2 Sudoeste 5 Sudeste 0 -- -- 91
2020-11-12 21:00:00 5.7 0 Calma 12 Sur 0 -- -- 84
2020-11-12 20:00:00 7.1 9 Sur 21 Sudoeste 0 -- -- 79
2020-11-12 19:00:00 7.3 12 Sudoeste 18 Sudoeste 0.2 -- -- 81
2020-11-12 18:00:00 8.1 7 Sur 15 Sudoeste 0 -- -- 80
2020-11-12 17:00:00 9 8 Sudoeste 11 Sudoeste 0 -- -- 77
2020-11-12 16:00:00 10.9 3 Sudoeste 9 Sur 0.2 -- -- 71
2020-11-12 15:00:00 17.4 4 Sudoeste 8 Nordeste 0.2 -- -- 51
2020-11-12 14:00:00 17.4 3 Nordeste 6 Nordeste 0.2 -- -- 40
2020-11-12 13:00:00 16 3 Norte 5 Norte 0 -- -- 42
2020-11-12 12:00:00 12.7 0 Calma 3 Sur 0 -- -- 59
2020-11-12 11:00:00 6 0 Calma 6 Nordeste 0 -- -- 84
2020-11-12 10:00:00 6.3 5 Nordeste 16 Sudoeste 0 -- -- 81
2020-11-12 09:00:00 4.7 7 Sur 15 Sudoeste 0 -- -- 87
2020-11-12 08:00:00 -- 5 Sudoeste 15 Sudoeste 0 -- -- --
2020-11-12 07:00:00 5.9 9 Sur 15 Sudoeste 0 -- -- 82
2020-11-12 06:00:00 6.2 7 Sur 13 Sudoeste 0 -- -- 82
2020-11-12 05:00:00 6 4 Sur 8 Sur 0 -- -- 85
2020-11-12 04:00:00 7.6 3 Sudoeste 18 Sudoeste 0 -- -- 78
2020-11-12 03:00:00 8 12 Sudoeste 19 Sudoeste 0 -- -- 78
2020-11-12 02:00:00 6.4 3 Sudoeste 5 Oeste 0 -- -- 88
2020-11-12 01:00:00 7.8 4 Sur 18 Sudoeste 0 -- -- 82
2020-11-12 00:00:00 7 11 Sur 17 Sudoeste 0 -- -- 86
2020-11-11 23:00:00 5.3 3 Sur 13 Sudoeste 0 -- -- 95
2020-11-11 22:00:00 4.9 2 Sur 6 Sudeste 0 -- -- 94
2020-11-11 21:00:00 6 3 Sudoeste 15 Sur 0 -- -- 90
2020-11-11 20:00:00 6.5 6 Sur 13 Sudoeste 0 -- -- 88
2020-11-11 19:00:00 6.4 2 Sudoeste 9 Sudoeste 0 -- -- 89
2020-11-11 18:00:00 7.8 0 Calma 14 Sudoeste 0 -- -- 84
2020-11-11 17:00:00 8.9 6 Sur 15 Sudoeste 0 -- -- 81
2020-11-11 16:00:00 10.6 4 Sudoeste 8 Sudoeste 0 -- -- 74
2020-11-11 15:00:00 16.6 5 Sudoeste 8 Sudoeste 0 -- -- 56
2020-11-11 14:00:00 16.9 0 Calma 6 Nordeste 0 -- -- 43
2020-11-11 13:00:00 14.9 4 Nordeste 8 Nordeste 0 -- -- 49
2020-11-11 12:00:00 11.5 0 Calma 3 Nordeste 0 -- -- 68
2020-11-11 11:00:00 3.6 0 Calma 4 Oeste 0 -- -- 99
2020-11-11 10:00:00 2.6 0 Calma 4 Nordeste 0 -- -- 95
2020-11-11 09:00:00 3.7 4 Sur 17 Sudoeste 0 -- -- 92
2020-11-11 08:00:00 2 5 Sur 10 Sur 0 -- -- 97
2020-11-11 07:00:00 2.6 5 Sudoeste 15 Sudoeste 0 -- -- 95
2020-11-11 06:00:00 3.1 12 Sudoeste 16 Sur 0 -- -- 96
2020-11-11 05:00:00 2.9 11 Sudoeste 18 Sudoeste 0 -- -- 97
2020-11-11 04:00:00 3.1 10 Sudoeste 15 Sudoeste 0 -- -- 98
2020-11-11 03:00:00 3.5 12 Sudoeste 16 Sudoeste 0 -- -- 97
2020-11-11 02:00:00 3.8 12 Sudoeste 15 Sudoeste 0 -- -- 97
2020-11-11 01:00:00 4.4 10 Sudoeste 14 Sudoeste 0 -- -- 97
2020-11-11 00:00:00 5.1 6 Sudoeste 13 Sudoeste 0.2 -- -- 96
2020-11-10 23:00:00 5.5 9 Sudoeste 15 Sudoeste 0 -- -- 97
2020-11-10 22:00:00 6.3 10 Sudoeste 14 Sudoeste 0.2 -- -- 97
2020-11-10 21:00:00 6.3 5 Sudoeste 12 Sudoeste 0 -- -- 98
2020-11-10 20:00:00 6.6 2 Sudoeste 4 Sudoeste 0 -- -- 94
2020-11-10 19:00:00 8.6 0 Calma 5 Sudoeste 0.2 -- -- 93
2020-11-10 18:00:00 10.8 0 Calma 2 Sur 0.2 -- -- 88
2020-11-10 17:00:00 12.4 2 Norte 5 Nordeste 0.2 -- -- 83
2020-11-10 16:00:00 12.7 3 Nordeste 7 Nordeste 0.2 -- -- 77
2020-11-10 15:00:00 12.9 3 Nordeste 9 Norte 0.2 -- -- 74
2020-11-10 14:00:00 12.6 0 Calma 5 Norte 0.2 -- -- 76
2020-11-10 13:00:00 11.3 0 Calma 5 Norte 0.2 -- -- 84
2020-11-10 12:00:00 10.7 2 Norte 10 Norte 0.2 -- -- 91
2020-11-10 11:00:00 10.7 5 Norte 10 Norte 0.2 -- -- 92
2020-11-10 10:00:00 9.6 0 Calma 4 Nordeste 0.2 -- -- 99
2020-11-10 09:00:00 8.8 0 Calma 4 Oeste 0.4 -- -- 100
2020-11-10 08:00:00 8.4 0 Calma 4 Sudeste 0.4 -- -- 99
2020-11-10 07:00:00 8.3 3 Sur 6 Norte 0 -- -- 99
2020-11-10 06:00:00 7.9 3 Sur 6 Sudoeste 0 -- -- 98
2020-11-10 05:00:00 8.5 2 Sudoeste 5 Sudoeste 0 -- -- 98
2020-11-10 04:00:00 8.4 2 Sudoeste 6 Sudoeste 0 -- -- 99
2020-11-10 03:00:00 8.5 0 Calma 4 Sur 0 -- -- 99
2020-11-10 02:00:00 8.6 3 Sudoeste 6 Sudoeste 0 -- -- 99
2020-11-10 01:00:00 8.6 3 Sudoeste 4 Sur 0 -- -- 98
2020-11-10 00:00:00 8.6 2 Sur 4 Sur 0 -- -- 97
2020-11-09 23:00:00 9.5 2 Sur 8 Sudoeste 0.2 -- -- 97
2020-11-09 22:00:00 10 0 Calma 3 Sur 0 -- -- 96
2020-11-09 21:00:00 10.5 0 Calma 4 Sudoeste 0 -- -- 94
2020-11-09 20:00:00 11.9 0 Calma 5 Este 0 -- -- 83
2020-11-09 19:00:00 12.5 2 Nordeste 9 Nordeste 0 -- -- 76
2020-11-09 18:00:00 13.3 4 Nordeste 17 Norte 0 -- -- 71
2020-11-09 17:00:00 14.5 6 Norte 18 Norte 0 -- -- 65
2020-11-09 16:00:00 15.7 6 Norte 18 Norte 0 -- -- 57
2020-11-09 15:00:00 18 9 Norte 18 Norte 0 -- -- 45
2020-11-09 14:00:00 18.5 3 Nordeste 6 Nordeste 0 -- -- 44
2020-11-09 13:00:00 16.3 0 Calma 4 Sudoeste 0 -- -- 42
2020-11-09 12:00:00 12.5 0 Calma 3 Sur 0 -- -- 64
2020-11-09 11:00:00 7.5 0 Calma 3 Sudoeste 0 -- -- 84
2020-11-09 10:00:00 6.2 0 Calma 3 Sur 0 -- -- 89
2020-11-09 09:00:00 4 0 Calma 5 Sudoeste 0 -- -- 92
2020-11-09 08:00:00 3.4 2 Sur 9 Sur 0 -- -- 93
2020-11-09 07:00:00 3.6 0 Calma 8 Sudoeste 0 -- -- 90
2020-11-09 06:00:00 4.5 4 Sudeste 10 Sur 0 -- -- 88
2020-11-09 05:00:00 5.5 3 Nordeste 16 Sudoeste 0 -- -- 84
2020-11-09 04:00:00 6.4 10 Sudoeste 18 Sudoeste 0 -- -- 81
2020-11-09 03:00:00 7.3 8 Sur 14 Sur 0 -- -- 78
2020-11-09 02:00:00 8.2 7 Sudoeste 17 Sur 0 -- -- 76
2020-11-09 01:00:00 8.8 6 Sur 18 Sur 0 -- -- 75
2020-11-09 00:00:00 8.5 8 Sudoeste 18 Sudoeste 0 -- -- 77
2020-11-08 23:00:00 4.8 0 Calma 7 Sur 0 -- -- 95
2020-11-08 22:00:00 5.4 3 Sur 9 Oeste 0 -- -- 96
2020-11-08 21:00:00 6.2 2 Oeste 7 Sur 0 -- -- 93
2020-11-08 20:00:00 8 3 Nordeste 12 Sudeste 0 -- -- 91
2020-11-08 19:00:00 9.5 3 Nordeste 19 Sudoeste 0 -- -- 84
2020-11-08 18:00:00 10.3 4 Sur 8 Sur 0 -- -- 85
2020-11-08 17:00:00 13.3 0 Calma 6 Noroeste 0 -- -- 78
2020-11-08 16:00:00 14.9 2 Este 12 Nordeste 0 -- -- 72
2020-11-08 15:00:00 15.6 0 Calma 6 Norte 0 -- -- 70
2020-11-08 14:00:00 16 3 Nordeste 8 Norte 0 -- -- 57
2020-11-08 13:00:00 15.3 3 Nordeste 8 Norte 0 -- -- 62
2020-11-08 12:00:00 13.4 0 Calma 6 Nordeste 0 -- -- 73
2020-11-08 11:00:00 7.7 0 Calma 3 Nordeste 0 -- -- 97
2020-11-08 10:00:00 5.9 0 Calma 8 Sudoeste 0 -- -- 95
2020-11-08 09:00:00 6.4 6 Sur 15 Sudoeste 0 -- -- 94
2020-11-08 08:00:00 5.5 9 Sur 15 Sur 0 -- -- 97
2020-11-08 07:00:00 5.4 11 Sur 15 Sudoeste 0 -- -- 97
2020-11-08 06:00:00 5.4 11 Sudoeste 14 Sudoeste 0 -- -- 99
2020-11-08 05:00:00 5.5 3 Norte 9 Sur 0 -- -- 98
2020-11-08 04:00:00 5.9 4 Sur 8 Sudoeste 0 -- -- 96
2020-11-08 03:00:00 7.5 4 Sur 9 Sudeste 0 -- -- 90
2020-11-08 02:00:00 9.2 4 Sur 12 Sudoeste 0 -- -- 86
2020-11-08 01:00:00 10 5 Sudoeste 26 Sudoeste 0 -- -- 82
2020-11-08 00:00:00 10.4 13 Sudoeste 24 Sudoeste 0 -- -- 82
2020-11-07 23:00:00 11.6 15 Sudoeste 32 Sudoeste 0 -- -- 75
2020-11-07 22:00:00 11.7 13 Sudoeste 30 Sudoeste 0 -- -- 77
2020-11-07 21:00:00 11.8 14 Sur 27 Sur 0 -- -- 78
2020-11-07 20:00:00 12.5 13 Sur 25 Sudoeste 0 -- -- 74
2020-11-07 19:00:00 11.7 15 Sur 27 Sur 0.2 -- -- 85
2020-11-07 18:00:00 12 14 Sudoeste 24 Sur 0.4 -- -- 91
2020-11-07 17:00:00 13.3 12 Sudoeste 23 Sudoeste 0.6 -- -- 86
2020-11-07 16:00:00 13.7 10 Sur 15 Sur 0.8 -- -- 86
2020-11-07 15:00:00 13.7 10 Sudoeste 22 Sudoeste 0.8 -- -- 88
2020-11-07 14:00:00 13.2 9 Sudoeste 12 Sudoeste 1 -- -- 94
2020-11-07 13:00:00 13.2 3 Noroeste 10 Sudoeste 1.2 -- -- 95
2020-11-07 12:00:00 13.6 2 Sur 20 Oeste 0.6 -- -- 91
2020-11-07 11:00:00 15.9 14 Sudoeste 52 Sudoeste 0 -- -- 71
2020-11-07 10:00:00 18.9 18 Oeste 49 Sudoeste 0 -- -- 49
2020-11-07 09:00:00 18.6 17 Sudoeste 37 Sudoeste 0 -- -- 48
2020-11-07 08:00:00 18.8 13 Oeste 54 Oeste 0 -- -- 47
2020-11-07 07:00:00 18.3 11 Noroeste 41 Sudoeste 0 -- -- 45
2020-11-07 06:00:00 16.8 6 Sudoeste 36 Sudoeste 0 -- -- 54
2020-11-07 05:00:00 18 14 Oeste 41 Sudoeste 0 -- -- 48
2020-11-07 04:00:00 18.9 14 Sudoeste 35 Sudoeste 0 -- -- 47
2020-11-07 03:00:00 18.3 11 Sur 32 Sudoeste 0 -- -- 49
2020-11-07 02:00:00 19.5 9 Oeste 40 Oeste 0 -- -- 44
2020-11-07 01:00:00 18.8 13 Sudoeste 39 Oeste 0 -- -- 44
2020-11-07 00:00:00 19 14 Oeste 28 Sudoeste 0 -- -- 43
2020-11-06 23:00:00 19.7 14 Oeste 58 Sudoeste 0 -- -- 42
2020-11-06 22:00:00 20.4 22 Sudoeste 56 Sudoeste 0 -- -- 38
2020-11-06 21:00:00 20.6 29 Sudoeste 64 Sudoeste 0 -- -- 39
2020-11-06 20:00:00 20.6 8 Noroeste 32 Sur 0 -- -- 38
2020-11-06 19:00:00 20.8 19 Oeste 42 Sudoeste 0 -- -- 38
2020-11-06 18:00:00 20.1 17 Oeste 40 Sudoeste 0 -- -- 41
2020-11-06 17:00:00 20.1 15 Oeste 36 Sudoeste 0 -- -- 42
2020-11-06 16:00:00 20.7 17 Sudoeste 38 Sudoeste 0 -- -- 44
2020-11-06 15:00:00 21.3 19 Sudoeste 40 Sudoeste 0 -- -- 43
2020-11-06 14:00:00 21.6 16 Oeste 31 Sudoeste 0 -- -- 45
2020-11-06 13:00:00 19 9 Sudoeste 24 Sudoeste 0 -- -- 53
2020-11-06 12:00:00 17.8 10 Sur 33 Sudoeste 0 -- -- 56
2020-11-06 11:00:00 16.7 16 Sudoeste 30 Sudoeste 0 -- -- 60
2020-11-06 10:00:00 15.6 24 Sudoeste 40 Sudoeste 0 -- -- 62
2020-11-06 09:00:00 15.2 14 Sudoeste 30 Sudoeste 0 -- -- 62
2020-11-06 08:00:00 13.5 14 Sudoeste 33 Sudoeste 0 -- -- 69
2020-11-06 07:00:00 12.8 16 Sudoeste 26 Sudoeste 0 -- -- 72
2020-11-06 06:00:00 12.9 12 Sudoeste 24 Sudoeste 0 -- -- 71
2020-11-06 05:00:00 12.7 9 Sudoeste 21 Sur 0 -- -- 75
2020-11-06 04:00:00 12.1 9 Sur 20 Sur 0 -- -- 74
2020-11-06 03:00:00 12.5 10 Sur 21 Sur 0 -- -- 76
2020-11-06 02:00:00 9.1 2 Sudoeste 11 Sudoeste 0 -- -- 94
2020-11-06 01:00:00 8 3 Sur 9 Oeste 0 -- -- 97
2020-11-06 00:00:00 7.4 3 Sur 6 Sur 0 -- -- 98
2020-11-05 23:00:00 7.4 3 Sudoeste 13 Sudoeste 0 -- -- 97
2020-11-05 22:00:00 7.2 3 Sudoeste 11 Sur 0 -- -- 98
2020-11-05 21:00:00 7.3 0 Calma 5 Nordeste 0 -- -- 98
2020-11-05 20:00:00 7.5 3 Sur 8 Sudoeste 0 -- -- 97
2020-11-05 19:00:00 7.6 3 Sur 8 Sudoeste 0 -- -- 97
2020-11-05 18:00:00 8.5 3 Sudoeste 10 Sudoeste 0 -- -- 93
2020-11-05 17:00:00 10.2 0 Calma 9 Sudoeste 0 -- -- 89
2020-11-05 16:00:00 12.4 3 Sudoeste 9 Norte 0 -- -- 80
2020-11-05 15:00:00 15.5 4 Nordeste 13 Norte 0 -- -- 64
2020-11-05 14:00:00 15.1 4 Nordeste 7 Norte 0 -- -- 67
2020-11-05 13:00:00 14.7 2 Norte 5 Nordeste 0.2 -- -- 71
2020-11-05 12:00:00 12.1 2 Nordeste 4 Este 0 -- -- 82
2020-11-05 11:00:00 5.5 0 Calma 5 Sudeste 0 -- -- 100
2020-11-05 10:00:00 2.2 0 Calma 4 Oeste 0 -- -- 100
2020-11-05 09:00:00 1.8 0 Calma 5 Sudoeste 0 -- -- 100
2020-11-05 08:00:00 1.6 2 Sudoeste 9 Sudoeste 0 -- -- 100
2020-11-05 07:00:00 1.7 3 Sudoeste 6 Sudoeste 0 -- -- 99
2020-11-05 06:00:00 2.1 2 Norte 5 Sudoeste 0 -- -- 98
2020-11-05 05:00:00 2.9 2 Sur 15 Sudoeste 0 -- -- 98
2020-11-05 04:00:00 3.1 3 Sur 8 Sudoeste 0 -- -- 98
2020-11-05 03:00:00 3.3 4 Sudoeste 8 Sudoeste 0 -- -- 98
2020-11-05 02:00:00 3.5 4 Sudoeste 7 Sudoeste 0 -- -- 97
2020-11-05 01:00:00 4.6 4 Sudoeste 10 Sudoeste 0 -- -- 93
2020-11-05 00:00:00 5.7 0 Calma 4 Sudoeste 0 -- -- 93
2020-11-04 23:00:00 5.8 0 Calma 2 Sudoeste 0 -- -- 92
2020-11-04 22:00:00 5.9 0 Calma 4 Norte 0 -- -- 89
2020-11-04 21:00:00 6 0 Calma 4 Nordeste 0 -- -- 88
2020-11-04 20:00:00 6.1 0 Calma 6 Este 0 -- -- 88
2020-11-04 19:00:00 6.3 2 Nordeste 5 Nordeste 0 -- -- 84
2020-11-04 18:00:00 6.6 3 Nordeste 11 Nordeste 0 -- -- 83
2020-11-04 17:00:00 7.3 5 Norte 13 Nordeste 0 -- -- 81
2020-11-04 16:00:00 8 6 Nordeste 11 Norte 0 -- -- 77
2020-11-04 15:00:00 8.1 5 Norte 10 Norte 0 -- -- 75
2020-11-04 14:00:00 8.1 4 Nordeste 8 Nordeste 0 -- -- 76
2020-11-04 13:00:00 8.1 2 Noroeste 7 Noroeste 0 -- -- 79
2020-11-04 12:00:00 6.9 4 Sudoeste 7 Sudoeste 0 -- -- 84
2020-11-04 11:00:00 5.9 0 Calma 6 Sudoeste 0 -- -- 85
2020-11-04 10:00:00 5.1 0 Calma 7 Sudoeste 0.2 -- -- 89
2020-11-04 09:00:00 4.5 2 Sudoeste 5 Sudoeste 0.6 -- -- 97
2020-11-04 08:00:00 4.2 2 Sudoeste 4 Sudoeste 0.8 -- -- 98
2020-11-04 07:00:00 4.3 0 Calma 2 Sur 0.8 -- -- 97
2020-11-04 06:00:00 4.5 3 Sudoeste 3 Sudoeste 0.8 -- -- 96
2020-11-04 05:00:00 4.8 0 Calma 3 Este 0.6 -- -- 96
2020-11-04 04:00:00 5 0 Calma 7 Nordeste 0.8 -- -- 94
2020-11-04 03:00:00 5.5 3 Nordeste 11 Nordeste 0.2 -- -- 92
2020-11-04 02:00:00 6.2 4 Nordeste 13 Norte 0.2 -- -- 92
2020-11-04 01:00:00 6.7 3 Nordeste 9 Nordeste 0.4 -- -- 95
2020-11-04 00:00:00 6.9 2 Nordeste 6 Nordeste 0.2 -- -- 96
2020-11-03 23:00:00 7.1 0 Calma 10 Nordeste 0 -- -- 96
2020-11-03 22:00:00 7.1 0 Calma 4 Nordeste 0.4 -- -- 96
2020-11-03 21:00:00 7.4 0 Calma 6 Este 0.2 -- -- 96
2020-11-03 20:00:00 7.5 2 Norte 5 Nordeste 0 -- -- 97
2020-11-03 19:00:00 7.7 0 Calma 2 Este 0.2 -- -- 97
2020-11-03 18:00:00 7.9 0 Calma 3 Norte 0.2 -- -- 96
2020-11-03 17:00:00 8.3 0 Calma 6 Nordeste 0 -- -- 93
2020-11-03 16:00:00 8.4 3 Nordeste 9 Este 0.4 -- -- 94
2020-11-03 15:00:00 8.6 3 Sudeste 9 Nordeste 1 -- -- 93
2020-11-03 14:00:00 8.6 3 Norte 13 Este 0.8 -- -- 95
2020-11-03 13:00:00 9.7 6 Nordeste 14 Este 0 -- -- 92
2020-11-03 12:00:00 10.4 3 Sudoeste 4 Nordeste 0 -- -- 92
2020-11-03 11:00:00 10.1 0 Calma 6 Este 0 -- -- 90
2020-11-03 10:00:00 9.6 0 Calma 5 Norte 0 -- -- 95
2020-11-03 09:00:00 9.6 3 Norte 8 Norte 0 -- -- 94
2020-11-03 08:00:00 9.9 2 Nordeste 5 Nordeste 0 -- -- 91
2020-11-03 07:00:00 10 3 Norte 9 Nordeste 0 -- -- 89
2020-11-03 06:00:00 10.5 6 Nordeste 12 Nordeste 0 -- -- 88
2020-11-03 05:00:00 10.5 0 Calma 13 Nordeste 0 -- -- 91
2020-11-03 04:00:00 11.4 8 Nordeste 16 Nordeste 0 -- -- 92
2020-11-03 03:00:00 12.5 2 Este 8 Este 0 -- -- 90
2020-11-03 02:00:00 12.9 4 Nordeste 13 Este 0 -- -- 88
2020-11-03 01:00:00 13.5 6 Nordeste 12 Nordeste 0 -- -- 91
2020-11-03 00:00:00 13.2 0 Calma 4 Sudoeste 0 -- -- 91
2020-11-02 23:00:00 13.1 0 Calma 8 Nordeste 0 -- -- 89
2020-11-02 22:00:00 12.8 0 Calma 4 Sur 0 -- -- 90
2020-11-02 21:00:00 12.4 0 Calma 6 Sudoeste 0 -- -- 91
2020-11-02 20:00:00 11.6 0 Calma 2 Sur 0 -- -- 93
2020-11-02 19:00:00 11.3 0 Calma 4 Oeste 0 -- -- 90
2020-11-02 18:00:00 13.3 2 Sur 5 Noroeste 0 -- -- 82
2020-11-02 17:00:00 15.2 2 Sudoeste 10 Sudoeste 0 -- -- 78
2020-11-02 16:00:00 19.2 2 Oeste 18 Norte 0 -- -- 63
2020-11-02 15:00:00 21.8 9 Norte 18 Norte 0 -- -- 52
2020-11-02 14:00:00 22.1 8 Norte 17 Norte 0 -- -- 50
2020-11-02 13:00:00 21.8 4 Nordeste 9 Este 0 -- -- 49
2020-11-02 12:00:00 18.9 2 Nordeste 6 Este 0 -- -- 52
2020-11-02 11:00:00 11.7 0 Calma 4 Sudeste 0 -- -- 86
2020-11-02 10:00:00 7.6 0 Calma 3 Oeste 0 -- -- 93
2020-11-02 09:00:00 7.5 0 Calma 6 Sur 0 -- -- 91
2020-11-02 08:00:00 8.7 3 Este 13 Sur 0 -- -- 85
2020-11-02 07:00:00 8.6 10 Sur 16 Sudoeste 0 -- -- 85
2020-11-02 06:00:00 8.4 9 Sur 14 Sur 0 -- -- 85
2020-11-02 05:00:00 7.5 3 Sur 13 Sur 0 -- -- 88
2020-11-02 04:00:00 5.5 0 Calma 3 Oeste 0 -- -- 96
2020-11-02 03:00:00 5.4 0 Calma 6 Sur 0 -- -- 95
2020-11-02 02:00:00 5.5 0 Calma 5 Sur 0 -- -- 94
2020-11-02 01:00:00 5.8 2 Sur 5 Sur 0 -- -- 92
2020-11-02 00:00:00 6.6 0 Calma 6 Sudoeste 0 -- -- 89
2020-11-01 23:00:00 7.8 3 Sudoeste 6 Sur 0 -- -- 86
2020-11-01 22:00:00 10.1 3 Este 17 Sudoeste 0 -- -- 76
2020-11-01 21:00:00 10.2 13 Sudoeste 19 Sudoeste 0 -- -- 77
2020-11-01 20:00:00 10.9 10 Sur 15 Sudoeste 0 -- -- 75
2020-11-01 19:00:00 12.2 10 Sudoeste 19 Sudoeste 0 -- -- 73
2020-11-01 18:00:00 12.1 4 Sudoeste 9 Sudoeste 0 -- -- 75
2020-11-01 17:00:00 14.4 0 Calma 7 Sudoeste 0 -- -- 69
2020-11-01 16:00:00 18.9 3 Sur 14 Norte 0 -- -- 55
2020-11-01 15:00:00 22.5 5 Norte 13 Norte 0 -- -- 41
2020-11-01 14:00:00 23.2 0 Calma 9 Nordeste 0 -- -- 33
2020-11-01 13:00:00 21.1 3 Nordeste 5 Nordeste 0 -- -- 36
2020-11-01 12:00:00 17.5 0 Calma 4 Nordeste 0 -- -- 52
2020-11-01 11:00:00 10.6 0 Calma 4 Sudoeste 0 -- -- 81
2020-11-01 10:00:00 5.6 0 Calma 12 Sudoeste 0 -- -- 89
2020-11-01 09:00:00 5.2 2 Sudoeste 10 Sudoeste 0 -- -- 90
2020-11-01 08:00:00 4.8 4 Sudeste 10 Sudoeste 0 -- -- 90
2020-11-01 07:00:00 4.6 0 Calma 6 Sudoeste 0 -- -- 90
2020-11-01 06:00:00 5.3 2 Sur 18 Sur 0 -- -- 84
2020-11-01 05:00:00 6.6 10 Sur 22 Oeste 0 -- -- 77
2020-11-01 04:00:00 5.6 5 Sur 14 Sudoeste 0 -- -- 82
2020-11-01 03:00:00 4.8 3 Sudoeste 9 Sudoeste 0 -- -- 86
2020-11-01 02:00:00 7 3 Nordeste 18 Sudoeste 0 -- -- 78
2020-11-01 01:00:00 6.6 9 Sudoeste 17 Sudoeste 0 -- -- 80
2020-11-01 00:00:00 6.4 2 Sur 17 Sudoeste 0 -- -- 81
2020-10-31 23:00:00 7.6 13 Sur 18 Sudoeste 0 -- -- 75
2020-10-31 22:00:00 6.9 0 Calma 14 Sur 0 -- -- 81
2020-10-31 21:00:00 7.4 0 Calma 10 Sudoeste 0 -- -- 82
2020-10-31 20:00:00 8.9 3 Sur 9 Sudoeste 0 -- -- 75
2020-10-31 19:00:00 10.7 5 Sudeste 13 Sur 0 -- -- 68
2020-10-31 18:00:00 10.8 2 Sur 8 Sur 0 -- -- 71
2020-10-31 17:00:00 13.8 4 Sur 10 Oeste 0 -- -- 60
2020-10-31 16:00:00 17.3 5 Sudoeste 10 Sudoeste 0 -- -- 52
2020-10-31 15:00:00 23.1 4 Norte 10 Norte 0 -- -- 31
2020-10-31 14:00:00 23 0 Calma 6 Norte 0 -- -- 28
2020-10-31 13:00:00 21.3 2 Nordeste 4 Norte 0 -- -- 35
2020-10-31 12:00:00 17.3 0 Calma 5 Sur 0 -- -- 45
2020-10-31 11:00:00 10 2 Este 5 Sudeste 0 -- -- 67
2020-10-31 10:00:00 4 2 Sur 5 Sudoeste 0 -- -- 89
2020-10-31 09:00:00 3.7 0 Calma 8 Nordeste 0 -- -- 86
2020-10-31 08:00:00 3.7 2 Sudeste 7 Sudoeste 0 -- -- 84
2020-10-31 07:00:00 4 3 Sudoeste 6 Sudeste 0 -- -- 85
2020-10-31 06:00:00 5.1 0 Calma 6 Sudoeste 0 -- -- 80
2020-10-31 05:00:00 7.2 0 Calma 12 Sur 0 -- -- 74
2020-10-31 04:00:00 5.7 0 Calma 10 Sur 0 -- -- 84
2020-10-31 03:00:00 4.9 4 Sur 10 Sur 0 -- -- 90
2020-10-31 02:00:00 3.8 0 Calma 5 Oeste 0 -- -- 95
2020-10-31 01:00:00 3.9 0 Calma 6 Sur 0 -- -- 95
2020-10-31 00:00:00 4.6 2 Sudoeste 8 Sudoeste 0 -- -- 92
2020-10-30 23:00:00 5.9 3 Sur 11 Sur 0 -- -- 89
2020-10-30 22:00:00 6 3 Sudoeste 7 Sudoeste 0 -- -- 89
2020-10-30 21:00:00 7.6 4 Sur 10 Oeste 0 -- -- 85
2020-10-30 20:00:00 9.8 6 Sur 15 Sudoeste 0 -- -- 78
2020-10-30 19:00:00 9.9 9 Sur 15 Sudoeste 0 -- -- 80
2020-10-30 18:00:00 10.9 4 Sudoeste 14 Sudoeste 0 -- -- 78
2020-10-30 17:00:00 12.3 0 Calma 10 Sudoeste 0 -- -- 73
2020-10-30 16:00:00 17.3 5 Sudoeste 9 Sudoeste 0 -- -- 56
2020-10-30 15:00:00 22.1 0 Calma 9 Nordeste 0.2 -- -- 41
2020-10-30 14:00:00 21.5 3 Norte 8 Nordeste 0 -- -- 40
2020-10-30 13:00:00 20.1 3 Nordeste 5 Nordeste 0 -- -- 46
2020-10-30 12:00:00 16.2 3 Sur 5 Sur 0 -- -- 59
2020-10-30 11:00:00 9.4 0 Calma 6 Sur 0 -- -- 84
2020-10-30 10:00:00 4.3 0 Calma 4 Sudoeste 0 -- -- 93
2020-10-30 09:00:00 5.3 0 Calma 14 Sur 0 -- -- 88
2020-10-30 08:00:00 5.5 7 Sur 17 Sudoeste 0 -- -- 87
2020-10-30 07:00:00 5.1 8 Sur 15 Sudoeste 0 -- -- 91
2020-10-30 06:00:00 4.4 5 Sur 11 Sudoeste 0 -- -- 94
2020-10-30 05:00:00 5.6 5 Sur 15 Sur 0 -- -- 90
2020-10-30 04:00:00 6 3 Sudoeste 15 Sudoeste 0 -- -- 89
2020-10-30 03:00:00 6.1 9 Sudoeste 15 Sudoeste 0 -- -- 91
2020-10-30 02:00:00 6.5 10 Sur 17 Sudoeste 0 -- -- 91
2020-10-30 01:00:00 7 10 Sudoeste 16 Sudoeste 0 -- -- 90
2020-10-30 00:00:00 7.1 8 Sur 15 Sudoeste 0 -- -- 92
2020-10-29 23:00:00 7.3 9 Sudoeste 16 Sudoeste 0 -- -- 93
2020-10-29 22:00:00 7.8 6 Sur 17 Sudoeste 0 -- -- 93
2020-10-29 21:00:00 8.2 8 Sudoeste 14 Sudoeste 0 -- -- 94
2020-10-29 20:00:00 8.9 8 Sur 18 Sudoeste 0 -- -- 92
2020-10-29 19:00:00 9.8 9 Sudoeste 17 Sudoeste 0 -- -- 90
2020-10-29 18:00:00 10.4 3 Sudoeste 9 Sudoeste 0 -- -- 88
2020-10-29 17:00:00 12.3 4 Sudoeste 10 Nordeste 0 -- -- 81
2020-10-29 16:00:00 16.6 5 Norte 17 Norte 0 -- -- 66
2020-10-29 15:00:00 17.5 9 Norte 18 Norte 0 -- -- 60
2020-10-29 14:00:00 17.5 8 Norte 16 Norte 0 -- -- 61
2020-10-29 13:00:00 16.5 3 Nordeste 7 Nordeste 0 -- -- 57
2020-10-29 12:00:00 14.6 3 Este 6 Nordeste 0.2 -- -- 66
2020-10-29 11:00:00 10.1 3 Nordeste 6 Nordeste 0 -- -- 86
2020-10-29 10:00:00 7 0 Calma 5 Sudoeste 0 -- -- 93
2020-10-29 09:00:00 7.9 0 Calma 21 Sudoeste 0 -- -- 88
2020-10-29 08:00:00 8.5 15 Sudoeste 23 Sudoeste 0 -- -- 84
2020-10-29 07:00:00 9.6 11 Sudoeste 15 Sudoeste 0 -- -- 86
2020-10-29 06:00:00 9.7 7 Sudoeste 19 Sudoeste 0 -- -- 88
2020-10-29 05:00:00 9.6 0 Calma 16 Sudoeste 0 -- -- 92
2020-10-29 04:00:00 9.6 2 Sur 4 Sur 0 -- -- 96
2020-10-29 03:00:00 9.5 2 Sudoeste 8 Nordeste 0 -- -- 95
2020-10-29 02:00:00 9.7 3 Este 8 Sudoeste 0 -- -- 94
2020-10-29 01:00:00 10.1 0 Calma 5 Sudoeste 0 -- -- 92
2020-10-29 00:00:00 10.5 0 Calma 5 Nordeste 0 -- -- 91
2020-10-28 23:00:00 10.7 0 Calma 8 Nordeste 0 -- -- 89
2020-10-28 22:00:00 11 2 Nordeste 9 Nordeste 0 -- -- 88
2020-10-28 21:00:00 11.3 4 Nordeste 11 Norte 0 -- -- 90
2020-10-28 20:00:00 11.7 2 Norte 5 Este 0 -- -- 91
2020-10-28 19:00:00 12.1 0 Calma 5 Nordeste 0 -- -- 88
2020-10-28 18:00:00 12.6 0 Calma 8 Norte 0 -- -- 86
2020-10-28 17:00:00 13 8 Norte 15 Norte 0 -- -- 82
2020-10-28 16:00:00 13.7 7 Norte 17 Norte 0 -- -- 80
2020-10-28 15:00:00 13.9 8 Norte 20 Norte 0 -- -- 77
2020-10-28 14:00:00 14.6 13 Norte 23 Norte 0 -- -- 73
2020-10-28 13:00:00 13.5 8 Norte 16 Norte 0 -- -- 78
2020-10-28 12:00:00 12.9 8 Norte 16 Norte 0 -- -- 86
2020-10-28 11:00:00 12.5 3 Norte 7 Norte 0 -- -- 87
2020-10-28 10:00:00 9.7 2 Nordeste 5 Sudoeste 0 -- -- 94
2020-10-28 09:00:00 8 5 Sudoeste 9 Sudoeste 0 -- -- 99
2020-10-28 08:00:00 6.7 6 Sudoeste 10 Sudoeste 0 -- -- 99
2020-10-28 07:00:00 6.9 0 Calma 14 Sudoeste 0 -- -- 98
2020-10-28 06:00:00 6.7 5 Sudoeste 9 Sudoeste 0 -- -- 99
2020-10-28 05:00:00 7.2 3 Sudoeste 13 Sudoeste 0 -- -- 96
2020-10-28 04:00:00 8.1 5 Sur 18 Sudoeste 0 -- -- 98
2020-10-28 03:00:00 8.3 4 Norte 18 Sudoeste 0 -- -- 99
2020-10-28 02:00:00 8.4 4 Sur 6 Norte 0 -- -- 98
2020-10-28 01:00:00 8.7 0 Calma 6 Sudoeste 0 -- -- 98
2020-10-28 00:00:00 8.7 3 Sudoeste 13 Sudoeste 0 -- -- 97